Time,TemperatureF,DewpointF,PressureIn,WindDirection,WindDirectionDegrees,WindSpeedMPH,WindSpeedGustMPH,Humidity,HourlyPrecipIn,Conditions,Clouds,dailyrainin,SoftwareType,DateUTC
2013-07-31 00:02:00,77.7,75.2,30.13,SSE,163,0.0,5.0,92,0.00,,,0.00,meteohub,2013-07-31 04:02:00,
2013-07-31 00:07:00,77.7,75.2,30.13,SSE,163,0.0,5.0,92,0.00,,,0.00,meteohub,2013-07-31 04:07:00,
2013-07-31 00:12:00,77.7,75.2,30.13,SSE,163,0.0,6.0,92,0.00,,,0.00,meteohub,2013-07-31 04:12:00,
2013-07-31 00:22:00,77.7,75.2,30.13,SSE,163,1.0,6.0,92,0.00,,,0.00,meteohub,2013-07-31 04:22:00,
2013-07-31 00:27:00,77.9,75.4,30.13,SSE,163,0.0,4.0,92,0.00,,,0.00,meteohub,2013-07-31 04:27:00,
2013-07-31 00:32:00,77.9,75.4,30.13,SSE,163,0.0,6.0,92,0.00,,,0.00,meteohub,2013-07-31 04:32:00,
2013-07-31 00:42:00,77.9,75.4,30.13,SSE,163,0.0,6.0,92,0.00,,,0.00,meteohub,2013-07-31 04:42:00,
2013-07-31 00:52:00,77.7,75.2,30.12,SSE,163,0.0,2.0,92,0.00,,,0.00,meteohub,2013-07-31 04:52:00,
2013-07-31 00:57:00,77.7,75.2,30.13,SSE,163,0.0,2.0,92,0.00,,,0.00,meteohub,2013-07-31 04:57:00,
2013-07-31 01:07:00,77.5,75.0,30.13,SSE,163,0.0,2.0,92,0.00,,,0.00,meteohub,2013-07-31 05:07:00,
2013-07-31 01:12:00,77.5,75.0,30.12,SSE,163,0.0,2.0,92,0.00,,,0.00,meteohub,2013-07-31 05:12:00,
2013-07-31 01:17:00,77.4,75.2,30.12,SSE,163,0.0,1.0,93,0.00,,,0.00,meteohub,2013-07-31 05:17:00,
2013-07-31 01:27:00,77.2,75.0,30.12,SSE,163,0.0,1.0,93,0.00,,,0.00,meteohub,2013-07-31 05:27:00,
2013-07-31 01:32:00,77.2,75.0,30.12,SSE,163,0.0,1.0,93,0.00,,,0.00,meteohub,2013-07-31 05:32:00,
2013-07-31 01:37:00,77.0,74.8,30.11,SSE,163,0.0,1.0,93,0.00,,,0.00,meteohub,2013-07-31 05:37:00,
2013-07-31 01:47:00,76.8,75.0,30.11,SSE,163,0.0,1.0,94,0.00,,,0.00,meteohub,2013-07-31 05:47:00,
2013-07-31 01:52:00,76.8,75.0,30.11,SSE,163,0.0,0.0,94,0.00,,,0.00,meteohub,2013-07-31 05:52:00,
2013-07-31 01:57:00,76.8,75.0,30.11,SSE,163,0.0,0.0,94,0.00,,,0.00,meteohub,2013-07-31 05:57:00,
2013-07-31 02:02:00,76.6,74.8,30.11,SSE,163,0.0,0.0,94,0.00,,,0.00,meteohub,2013-07-31 06:02:00,
2013-07-31 02:07:00,76.6,74.8,30.11,SSE,163,0.0,0.0,94,0.00,,,0.00,meteohub,2013-07-31 06:07:00,
2013-07-31 02:17:00,76.6,74.8,30.10,SSE,163,0.0,0.0,94,0.00,,,0.00,meteohub,2013-07-31 06:17:00,
2013-07-31 02:27:00,76.5,74.7,30.10,SSE,163,0.0,0.0,94,0.00,,,0.00,meteohub,2013-07-31 06:27:00,
2013-07-31 02:32:00,76.5,74.8,30.10,SSE,163,0.0,0.0,95,0.00,,,0.00,meteohub,2013-07-31 06:32:00,
2013-07-31 02:37:00,76.5,74.8,30.10,SSE,163,0.0,0.0,95,0.00,,,0.00,meteohub,2013-07-31 06:37:00,
2013-07-31 02:42:00,76.5,74.8,30.09,SSE,163,0.0,0.0,95,0.00,,,0.00,meteohub,2013-07-31 06:42:00,
2013-07-31 02:47:00,76.5,74.8,30.09,SSE,163,0.0,0.0,95,0.00,,,0.00,meteohub,2013-07-31 06:47:00,
2013-07-31 02:52:00,76.5,74.8,30.09,SSE,163,0.0,0.0,95,0.00,,,0.00,meteohub,2013-07-31 06:52:00,
2013-07-31 02:57:00,76.5,74.8,30.09,SSE,163,0.0,0.0,95,0.00,,,0.00,meteohub,2013-07-31 06:57:00,
2013-07-31 03:02:00,76.3,74.7,30.09,SSE,163,0.0,0.0,95,0.00,,,0.00,meteohub,2013-07-31 07:02:00,
2013-07-31 03:12:00,76.3,74.7,30.09,SSE,163,0.0,0.0,95,0.00,,,0.00,meteohub,2013-07-31 07:12:00,
2013-07-31 03:17:00,76.3,74.7,30.09,SSE,163,0.0,0.0,95,0.00,,,0.00,meteohub,2013-07-31 07:17:00,
2013-07-31 03:27:00,75.9,74.3,30.09,SSE,163,0.0,0.0,95,0.00,,,0.00,meteohub,2013-07-31 07:27:00,
2013-07-31 03:32:00,75.7,74.1,30.09,SSE,163,0.0,0.0,95,0.00,,,0.00,meteohub,2013-07-31 07:32:00,
2013-07-31 03:37:00,75.7,74.1,30.09,SSE,163,0.0,0.0,95,0.00,,,0.00,meteohub,2013-07-31 07:37:00,
2013-07-31 03:42:00,75.6,73.9,30.09,SSE,163,0.0,0.0,95,0.00,,,0.00,meteohub,2013-07-31 07:42:00,
2013-07-31 03:52:00,75.4,73.8,30.09,SSE,163,0.0,0.0,95,0.00,,,0.00,meteohub,2013-07-31 07:52:00,
2013-07-31 03:57:00,75.4,73.8,30.09,SSE,163,0.0,0.0,95,0.00,,,0.00,meteohub,2013-07-31 07:57:00,
2013-07-31 04:02:00,75.2,73.9,30.09,SSE,163,0.0,0.0,96,0.00,,,0.00,meteohub,2013-07-31 08:02:00,
2013-07-31 04:07:00,75.0,73.8,30.09,SSE,163,0.0,0.0,96,0.00,,,0.00,meteohub,2013-07-31 08:07:00,
2013-07-31 04:12:00,75.0,73.8,30.09,SSE,163,0.0,0.0,96,0.00,,,0.00,meteohub,2013-07-31 08:12:00,
2013-07-31 04:17:00,74.8,73.6,30.09,SSE,163,0.0,0.0,96,0.00,,,0.00,meteohub,2013-07-31 08:17:00,
2013-07-31 04:22:00,74.8,73.6,30.09,SSE,163,0.0,0.0,96,0.00,,,0.00,meteohub,2013-07-31 08:22:00,
2013-07-31 04:32:00,74.7,73.4,30.09,SSE,163,0.0,0.0,96,0.00,,,0.00,meteohub,2013-07-31 08:32:00,
2013-07-31 04:37:00,74.5,73.2,30.08,SSE,163,0.0,0.0,96,0.00,,,0.00,meteohub,2013-07-31 08:37:00,
2013-07-31 04:42:00,74.5,73.2,30.08,SSE,163,0.0,0.0,96,0.00,,,0.00,meteohub,2013-07-31 08:42:00,
2013-07-31 04:47:00,74.5,73.6,30.08,SSE,163,0.0,0.0,97,0.00,,,0.00,meteohub,2013-07-31 08:47:00,
2013-07-31 04:52:00,74.5,73.6,30.08,SSE,163,0.0,0.0,97,0.00,,,0.00,meteohub,2013-07-31 08:52:00,
2013-07-31 04:57:00,74.5,73.6,30.08,SSE,163,0.0,0.0,97,0.00,,,0.00,meteohub,2013-07-31 08:57:00,
2013-07-31 05:02:00,74.5,73.6,30.08,SSE,163,0.0,0.0,97,0.00,,,0.00,meteohub,2013-07-31 09:02:00,
2013-07-31 05:07:00,74.5,73.6,30.08,SSE,163,0.0,0.0,97,0.00,,,0.00,meteohub,2013-07-31 09:07:00,
2013-07-31 05:17:00,74.1,72.9,30.08,SSE,163,0.0,0.0,96,0.00,,,0.00,meteohub,2013-07-31 09:17:00,
2013-07-31 05:22:00,73.9,72.7,30.08,SSE,163,0.0,0.0,96,0.00,,,0.00,meteohub,2013-07-31 09:22:00,
2013-07-31 05:27:00,73.9,73.0,30.08,SSE,163,0.0,0.0,97,0.00,,,0.00,meteohub,2013-07-31 09:27:00,
2013-07-31 05:32:00,73.9,73.0,30.08,SSE,163,0.0,0.0,97,0.00,,,0.00,meteohub,2013-07-31 09:32:00,
2013-07-31 05:37:00,73.9,73.0,30.08,SSE,163,0.0,0.0,97,0.00,,,0.00,meteohub,2013-07-31 09:37:00,
2013-07-31 05:42:00,73.8,72.9,30.08,SSE,163,0.0,0.0,97,0.00,,,0.00,meteohub,2013-07-31 09:42:00,
2013-07-31 05:47:00,73.8,72.9,30.09,SSE,163,0.0,0.0,97,0.00,,,0.00,meteohub,2013-07-31 09:47:00,
2013-07-31 05:57:00,73.8,72.9,30.09,SSE,163,0.0,0.0,97,0.00,,,0.00,meteohub,2013-07-31 09:57:00,
2013-07-31 06:02:00,73.9,73.0,30.09,SSE,163,0.0,0.0,97,0.00,,,0.00,meteohub,2013-07-31 10:02:00,
2013-07-31 06:07:00,73.8,72.9,30.10,SSE,163,0.0,0.0,97,0.00,,,0.00,meteohub,2013-07-31 10:07:00,
2013-07-31 06:17:00,73.8,72.9,30.10,SSE,163,0.0,0.0,97,0.00,,,0.00,meteohub,2013-07-31 10:17:00,
2013-07-31 06:22:00,73.8,72.9,30.10,SSE,163,0.0,0.0,97,0.00,,,0.00,meteohub,2013-07-31 10:22:00,
2013-07-31 06:32:00,73.6,72.7,30.10,SSE,163,0.0,0.0,97,0.00,,,0.00,meteohub,2013-07-31 10:32:00,
2013-07-31 06:42:00,73.6,72.7,30.10,SSE,163,0.0,0.0,97,0.00,,,0.00,meteohub,2013-07-31 10:42:00,
2013-07-31 06:47:00,73.4,72.5,30.10,SSE,163,0.0,0.0,97,0.00,,,0.00,meteohub,2013-07-31 10:47:00,
2013-07-31 06:57:00,73.2,72.3,30.11,SSE,163,0.0,0.0,97,0.00,,,0.00,meteohub,2013-07-31 10:57:00,
2013-07-31 07:02:00,73.6,73.0,30.11,SSE,163,0.0,0.0,98,0.00,,,0.00,meteohub,2013-07-31 11:02:00,
2013-07-31 07:07:00,73.6,73.0,30.11,SSE,163,0.0,0.0,98,0.00,,,0.00,meteohub,2013-07-31 11:07:00,
2013-07-31 07:17:00,73.8,73.2,30.11,SSE,163,0.0,0.0,98,0.00,,,0.00,meteohub,2013-07-31 11:17:00,
2013-07-31 07:22:00,73.8,73.2,30.11,SSE,163,0.0,0.0,98,0.00,,,0.00,meteohub,2013-07-31 11:22:00,
2013-07-31 07:32:00,73.9,73.4,30.11,SSE,163,0.0,0.0,98,0.00,,,0.00,meteohub,2013-07-31 11:32:00,
2013-07-31 07:37:00,74.3,73.8,30.11,SSE,163,0.0,0.0,98,0.00,,,0.00,meteohub,2013-07-31 11:37:00,
2013-07-31 07:42:00,74.5,73.9,30.11,SSE,163,0.0,0.0,98,0.00,,,0.00,meteohub,2013-07-31 11:42:00,
2013-07-31 07:47:00,74.7,74.1,30.11,SSE,163,0.0,0.0,98,0.00,,,0.00,meteohub,2013-07-31 11:47:00,
2013-07-31 07:57:00,75.0,74.7,30.11,SSE,163,0.0,0.0,99,0.00,,,0.00,meteohub,2013-07-31 11:57:00,
2013-07-31 08:02:00,75.4,74.8,30.11,SSE,163,0.0,0.0,98,0.00,,,0.00,meteohub,2013-07-31 12:02:00,
2013-07-31 08:12:00,75.9,75.6,30.12,SSE,163,0.0,0.0,99,0.00,,,0.00,meteohub,2013-07-31 12:12:00,
2013-07-31 08:17:00,76.1,75.6,30.12,SSE,163,0.0,0.0,98,0.00,,,0.00,meteohub,2013-07-31 12:17:00,
2013-07-31 08:22:00,76.3,75.7,30.12,SSE,163,0.0,2.0,98,0.00,,,0.00,meteohub,2013-07-31 12:22:00,
2013-07-31 08:27:00,76.6,76.1,30.12,SSE,163,1.0,4.0,98,0.00,,,0.00,meteohub,2013-07-31 12:27:00,
2013-07-31 08:32:00,76.8,76.3,30.12,SSE,163,0.0,4.0,98,0.00,,,0.00,meteohub,2013-07-31 12:32:00,
2013-07-31 08:37:00,77.0,76.5,30.12,SSE,163,4.0,4.0,98,0.00,,,0.00,meteohub,2013-07-31 12:37:00,
2013-07-31 08:42:00,77.2,76.3,30.12,SSE,163,0.0,5.0,97,0.00,,,0.00,meteohub,2013-07-31 12:42:00,
2013-07-31 08:47:00,77.4,76.5,30.12,SSE,163,2.0,5.0,97,0.00,,,0.00,meteohub,2013-07-31 12:47:00,
2013-07-31 08:52:00,77.7,76.5,30.12,SSE,163,0.0,6.0,96,0.00,,,0.00,meteohub,2013-07-31 12:52:00,
2013-07-31 08:57:00,78.1,76.8,30.12,SSE,163,0.0,8.0,96,0.00,,,0.00,meteohub,2013-07-31 12:57:00,
2013-07-31 09:02:00,78.4,76.8,30.12,SSE,163,2.0,8.0,95,0.00,,,0.00,meteohub,2013-07-31 13:02:00,
2013-07-31 09:12:00,79.5,77.7,30.12,SSE,163,1.0,6.0,94,0.00,,,0.00,meteohub,2013-07-31 13:12:00,
2013-07-31 09:17:00,80.1,77.9,30.12,SSE,163,2.0,6.0,93,0.00,,,0.00,meteohub,2013-07-31 13:17:00,
2013-07-31 09:22:00,80.8,77.5,30.12,SSE,163,4.0,5.0,90,0.00,,,0.00,meteohub,2013-07-31 13:22:00,
2013-07-31 09:27:00,81.1,77.5,30.12,SSE,163,6.0,8.0,89,0.00,,,0.00,meteohub,2013-07-31 13:27:00,
2013-07-31 09:32:00,81.7,77.4,30.12,SSE,163,0.0,8.0,87,0.00,,,0.00,meteohub,2013-07-31 13:32:00,
2013-07-31 09:42:00,82.9,77.5,30.12,SSE,163,4.0,7.0,84,0.00,,,0.00,meteohub,2013-07-31 13:42:00,
2013-07-31 09:47:00,83.8,78.4,30.12,SSE,163,0.0,7.0,84,0.00,,,0.00,meteohub,2013-07-31 13:47:00,
2013-07-31 09:52:00,84.6,77.7,30.12,SSE,163,6.0,6.0,80,0.00,,,0.00,meteohub,2013-07-31 13:52:00,
2013-07-31 09:57:00,85.3,78.4,30.12,SSE,163,0.0,7.0,80,0.00,,,0.00,meteohub,2013-07-31 13:57:00,
2013-07-31 10:07:00,85.6,77.2,30.12,SSE,163,0.0,7.0,76,0.00,,,0.00,meteohub,2013-07-31 14:07:00,
2013-07-31 10:12:00,85.8,77.4,30.12,SSE,163,2.0,7.0,76,0.00,,,0.00,meteohub,2013-07-31 14:12:00,
2013-07-31 10:17:00,86.0,77.9,30.12,SSE,163,1.0,7.0,77,0.00,,,0.00,meteohub,2013-07-31 14:17:00,
2013-07-31 10:22:00,86.5,78.8,30.12,SSE,163,7.0,7.0,78,0.00,,,0.00,meteohub,2013-07-31 14:22:00,
2013-07-31 10:32:00,87.4,78.6,30.12,SSE,163,1.0,7.0,75,0.00,,,0.00,meteohub,2013-07-31 14:32:00,
2013-07-31 10:37:00,87.6,78.6,30.12,SSE,163,6.0,7.0,75,0.00,,,0.00,meteohub,2013-07-31 14:37:00,
2013-07-31 10:47:00,88.3,79.3,30.12,SSE,163,5.0,7.0,75,0.00,,,0.00,meteohub,2013-07-31 14:47:00,
2013-07-31 10:52:00,88.3,77.7,30.12,SSW,202,3.0,8.0,71,0.00,,,0.00,meteohub,2013-07-31 14:52:00,
2013-07-31 11:02:00,88.5,78.3,30.12,SW,228,3.0,8.0,72,0.00,,,0.00,meteohub,2013-07-31 15:02:00,
2013-07-31 11:07:00,88.7,78.1,30.12,SSW,197,0.0,7.0,71,0.00,,,0.00,meteohub,2013-07-31 15:07:00,
2013-07-31 11:17:00,89.4,77.5,30.12,SW,215,4.0,8.0,68,0.00,,,0.00,meteohub,2013-07-31 15:17:00,
2013-07-31 11:22:00,89.4,76.6,30.12,SW,223,0.0,8.0,66,0.00,,,0.00,meteohub,2013-07-31 15:22:00,
2013-07-31 11:27:00,90.0,79.3,30.12,SSW,192,1.0,8.0,71,0.00,,,0.00,meteohub,2013-07-31 15:27:00,
2013-07-31 11:37:00,90.0,77.5,30.12,SW,219,5.0,5.0,67,0.00,,,0.00,meteohub,2013-07-31 15:37:00,
2013-07-31 11:42:00,89.2,77.4,30.12,WSW,241,0.0,7.0,68,0.00,,,0.00,meteohub,2013-07-31 15:42:00,
2013-07-31 11:52:00,88.2,77.2,30.11,WSW,246,2.0,7.0,70,0.00,,,0.00,meteohub,2013-07-31 15:52:00,
2013-07-31 12:02:00,87.6,76.6,30.11,WSW,249,1.0,5.0,70,0.00,,,0.00,meteohub,2013-07-31 16:02:00,
2013-07-31 12:12:00,87.3,77.2,30.11,WSW,246,0.0,7.0,72,0.00,,,0.00,meteohub,2013-07-31 16:12:00,
2013-07-31 12:17:00,86.9,76.3,30.11,SW,223,0.0,7.0,71,0.00,,,0.00,meteohub,2013-07-31 16:17:00,
2013-07-31 12:22:00,86.7,76.1,30.11,SW,223,2.0,7.0,71,0.00,,,0.00,meteohub,2013-07-31 16:22:00,
2013-07-31 12:32:00,86.2,77.4,30.11,SSE,152,5.0,5.0,75,0.00,,,0.00,meteohub,2013-07-31 16:32:00,
2013-07-31 12:37:00,85.3,77.2,30.10,East,94,1.0,8.0,77,0.00,,,0.00,meteohub,2013-07-31 16:37:00,
2013-07-31 12:42:00,84.4,77.2,30.10,East,82,1.0,9.0,79,0.00,,,0.00,meteohub,2013-07-31 16:42:00,
2013-07-31 12:52:00,83.3,77.5,30.11,East,95,0.0,7.0,83,0.00,,,0.00,meteohub,2013-07-31 16:52:00,
2013-07-31 12:57:00,82.9,77.2,30.10,ESE,122,5.0,7.0,83,0.00,,,0.00,meteohub,2013-07-31 16:57:00,
2013-07-31 13:07:00,81.9,75.7,30.09,East,96,3.0,10.0,82,0.00,,,0.00,meteohub,2013-07-31 17:07:00,
2013-07-31 13:12:00,81.5,76.8,30.10,East,94,4.0,10.0,86,0.00,,,0.00,meteohub,2013-07-31 17:12:00,
2013-07-31 13:17:00,81.0,76.6,30.09,SSE,161,9.0,10.0,87,0.00,,,0.00,meteohub,2013-07-31 17:17:00,
2013-07-31 13:22:00,80.4,76.5,30.09,SE,145,3.0,12.0,88,0.00,,,0.00,meteohub,2013-07-31 17:22:00,
2013-07-31 13:27:00,80.1,75.6,30.10,SE,130,3.0,12.0,86,0.00,,,0.00,meteohub,2013-07-31 17:27:00,
2013-07-31 13:32:00,79.5,73.9,30.09,SE,129,9.0,14.0,83,0.00,,,0.00,meteohub,2013-07-31 17:32:00,
2013-07-31 13:37:00,79.2,73.2,30.09,SE,132,0.0,14.0,82,0.00,,,0.00,meteohub,2013-07-31 17:37:00,
2013-07-31 13:47:00,78.6,74.8,30.08,South,190,0.0,11.0,88,0.00,,,0.00,meteohub,2013-07-31 17:47:00,
2013-07-31 13:57:00,78.6,75.7,30.07,SE,142,0.0,10.0,91,0.00,,,0.00,meteohub,2013-07-31 17:57:00,
2013-07-31 14:02:00,78.8,75.6,30.06,SE,142,0.0,4.0,90,0.00,,,0.00,meteohub,2013-07-31 18:02:00,
2013-07-31 14:12:00,79.3,76.1,30.07,SE,142,0.0,4.0,90,0.00,,,0.00,meteohub,2013-07-31 18:12:00,
2013-07-31 14:22:00,80.2,76.6,30.06,SE,142,1.0,0.0,89,0.00,,,0.00,meteohub,2013-07-31 18:22:00,
2013-07-31 14:27:00,80.8,75.9,30.06,SSE,161,6.0,6.0,85,0.00,,,0.00,meteohub,2013-07-31 18:27:00,
2013-07-31 14:32:00,80.8,76.3,30.05,SSE,161,0.0,8.0,86,0.00,,,0.00,meteohub,2013-07-31 18:32:00,
2013-07-31 14:37:00,80.6,76.1,30.05,SSE,157,1.0,8.0,86,0.00,,,0.00,meteohub,2013-07-31 18:37:00,
2013-07-31 14:42:00,80.2,75.4,30.06,SSE,157,1.0,8.0,85,0.00,,,0.00,meteohub,2013-07-31 18:42:00,
2013-07-31 14:52:00,79.9,75.7,30.05,SSE,153,2.0,6.0,87,0.00,,,0.00,meteohub,2013-07-31 18:52:00,
2013-07-31 14:57:00,79.5,75.6,30.06,SSE,153,0.0,6.0,88,0.00,,,0.00,meteohub,2013-07-31 18:57:00,
2013-07-31 15:07:00,79.3,75.7,30.06,SSE,153,0.0,6.0,89,0.00,,,0.00,meteohub,2013-07-31 19:07:00,
2013-07-31 15:17:00,79.5,76.3,30.06,SSE,153,0.0,3.0,90,0.00,,,0.00,meteohub,2013-07-31 19:17:00,
2013-07-31 15:27:00,79.5,76.3,30.06,SSE,153,0.0,3.0,90,0.00,,,0.00,meteohub,2013-07-31 19:27:00,
2013-07-31 15:32:00,79.5,76.3,30.06,SSE,153,0.0,3.0,90,0.00,,,0.00,meteohub,2013-07-31 19:32:00,
2013-07-31 15:42:00,79.5,75.9,30.06,North,5,5.0,7.0,89,0.00,,,0.00,meteohub,2013-07-31 19:42:00,
2013-07-31 15:52:00,78.4,74.7,30.06,NNW,331,5.0,14.0,88,0.00,,,0.00,meteohub,2013-07-31 19:52:00,
2013-07-31 15:57:00,78.1,74.5,30.06,NNW,346,3.0,14.0,89,0.00,,,0.00,meteohub,2013-07-31 19:57:00,
2013-07-31 16:02:00,77.7,74.3,30.06,West,280,2.0,14.0,89,0.00,,,0.00,meteohub,2013-07-31 20:02:00,
2013-07-31 16:12:00,77.4,74.1,30.07,NNW,337,0.0,6.0,90,0.00,,,0.00,meteohub,2013-07-31 20:12:00,
2013-07-31 16:17:00,77.4,74.5,30.06,NNW,337,0.0,6.0,91,0.00,,,0.00,meteohub,2013-07-31 20:17:00,
2013-07-31 16:22:00,77.2,74.3,30.06,NNW,337,0.0,2.0,91,0.00,,,0.00,meteohub,2013-07-31 20:22:00,
2013-07-31 16:27:00,77.2,74.7,30.06,NNW,337,0.0,1.0,92,0.00,,,0.00,meteohub,2013-07-31 20:27:00,
2013-07-31 16:32:00,77.0,74.5,30.06,NNW,337,0.0,0.0,92,0.00,,,0.00,meteohub,2013-07-31 20:32:00,
2013-07-31 16:37:00,76.8,74.7,30.06,NNW,337,0.0,2.0,93,0.01,,,0.01,meteohub,2013-07-31 20:37:00,
2013-07-31 16:47:00,76.5,74.3,30.07,SSW,213,0.0,9.0,93,0.02,,,0.02,meteohub,2013-07-31 20:47:00,
2013-07-31 16:52:00,76.5,74.7,30.07,SW,214,2.0,9.0,94,0.02,,,0.02,meteohub,2013-07-31 20:52:00,
2013-07-31 17:02:00,76.1,74.3,30.06,South,171,0.0,4.0,94,0.04,,,0.04,meteohub,2013-07-31 21:02:00,
2013-07-31 17:12:00,75.7,73.9,30.05,SW,219,0.0,5.0,94,0.05,,,0.04,meteohub,2013-07-31 21:12:00,
2013-07-31 17:22:00,75.2,72.7,30.05,SW,219,0.0,4.0,92,0.06,,,0.06,meteohub,2013-07-31 21:22:00,
2013-07-31 17:27:00,75.0,72.9,30.05,SW,219,2.0,4.0,93,0.07,,,0.07,meteohub,2013-07-31 21:27:00,
2013-07-31 17:37:00,74.7,72.5,30.05,SW,219,0.0,3.0,93,0.08,,,0.09,meteohub,2013-07-31 21:37:00,
2013-07-31 17:42:00,74.7,72.9,30.05,SW,219,0.0,3.0,94,0.08,,,0.10,meteohub,2013-07-31 21:42:00,
2013-07-31 17:47:00,74.5,72.7,30.05,SW,219,0.0,0.0,94,0.09,,,0.11,meteohub,2013-07-31 21:47:00,
2013-07-31 17:52:00,74.5,72.7,30.05,SW,219,0.0,0.0,94,0.11,,,0.13,meteohub,2013-07-31 21:52:00,
2013-07-31 18:02:00,74.1,72.3,30.04,SW,219,0.0,0.0,94,0.11,,,0.15,meteohub,2013-07-31 22:02:00,
2013-07-31 18:07:00,73.9,72.5,30.04,SW,219,0.0,0.0,95,0.11,,,0.15,meteohub,2013-07-31 22:07:00,
2013-07-31 18:12:00,73.9,72.5,30.04,SW,219,0.0,0.0,95,0.10,,,0.15,meteohub,2013-07-31 22:12:00,
2013-07-31 18:17:00,74.1,72.9,30.04,SW,219,0.0,0.0,96,0.09,,,0.15,meteohub,2013-07-31 22:17:00,
2013-07-31 18:22:00,74.1,72.9,30.04,SW,219,0.0,0.0,96,0.08,,,0.15,meteohub,2013-07-31 22:22:00,
2013-07-31 18:32:00,74.5,73.2,30.05,SW,219,0.0,0.0,96,0.06,,,0.15,meteohub,2013-07-31 22:32:00,
2013-07-31 18:42:00,74.7,73.4,30.05,SW,219,0.0,1.0,96,0.05,,,0.15,meteohub,2013-07-31 22:42:00,
2013-07-31 18:47:00,74.7,73.4,30.05,SW,219,0.0,1.0,96,0.03,,,0.15,meteohub,2013-07-31 22:47:00,
2013-07-31 18:52:00,74.7,73.4,30.06,SW,219,0.0,1.0,96,0.02,,,0.16,meteohub,2013-07-31 22:52:00,
2013-07-31 18:57:00,74.7,73.4,30.06,SW,219,0.0,0.0,96,0.01,,,0.16,meteohub,2013-07-31 22:57:00,
2013-07-31 19:02:00,74.7,73.4,30.06,SW,219,0.0,0.0,96,0.01,,,0.16,meteohub,2013-07-31 23:02:00,
2013-07-31 19:07:00,74.7,73.4,30.06,SW,219,0.0,0.0,96,0.02,,,0.17,meteohub,2013-07-31 23:07:00,
2013-07-31 19:12:00,74.7,73.4,30.06,SW,219,0.0,0.0,96,0.03,,,0.18,meteohub,2013-07-31 23:12:00,
2013-07-31 19:22:00,74.8,73.9,30.07,SW,219,0.0,0.0,97,0.03,,,0.18,meteohub,2013-07-31 23:22:00,
2013-07-31 19:27:00,74.8,73.9,30.06,SW,219,0.0,0.0,97,0.03,,,0.18,meteohub,2013-07-31 23:27:00,
2013-07-31 19:32:00,74.8,73.9,30.06,WSW,237,0.0,4.0,97,0.03,,,0.18,meteohub,2013-07-31 23:32:00,
2013-07-31 19:37:00,74.8,73.9,30.06,WSW,237,0.0,4.0,97,0.03,,,0.18,meteohub,2013-07-31 23:37:00,
2013-07-31 19:47:00,74.8,73.9,30.06,WSW,237,0.0,2.0,97,0.03,,,0.19,meteohub,2013-07-31 23:47:00,
2013-07-31 19:52:00,74.8,73.6,30.06,WSW,237,0.0,2.0,96,0.03,,,0.19,meteohub,2013-07-31 23:52:00,
2013-07-31 19:57:00,74.8,73.6,30.06,WSW,237,0.0,2.0,96,0.04,,,0.20,meteohub,2013-07-31 23:57:00,
2013-07-31 20:02:00,74.7,73.4,30.06,WSW,237,0.0,2.0,96,0.03,,,0.20,meteohub,2013-08-01 00:02:00,
2013-07-31 20:07:00,74.7,73.4,30.06,WSW,237,0.0,1.0,96,0.02,,,0.20,meteohub,2013-08-01 00:07:00,
2013-07-31 20:17:00,74.7,73.8,30.06,WSW,237,0.0,0.0,97,0.02,,,0.20,meteohub,2013-08-01 00:17:00,
2013-07-31 20:22:00,74.5,73.6,30.06,WSW,237,0.0,0.0,97,0.02,,,0.20,meteohub,2013-08-01 00:22:00,
2013-07-31 20:27:00,74.5,73.6,30.06,WSW,237,0.0,0.0,97,0.02,,,0.20,meteohub,2013-08-01 00:27:00,
2013-07-31 20:32:00,74.5,73.6,30.06,WSW,237,0.0,0.0,97,0.02,,,0.20,meteohub,2013-08-01 00:32:00,
2013-07-31 20:37:00,74.3,73.0,30.06,South,169,0.0,8.0,96,0.01,,,0.20,meteohub,2013-08-01 00:37:00,
2013-07-31 20:47:00,73.9,72.7,30.06,SSE,156,3.0,8.0,96,0.01,,,0.20,meteohub,2013-08-01 00:47:00,
2013-07-31 20:57:00,73.4,72.0,30.07,South,172,1.0,9.0,95,0.00,,,0.20,meteohub,2013-08-01 00:57:00,
2013-07-31 21:02:00,73.2,72.0,30.07,South,181,4.0,9.0,96,0.00,,,0.20,meteohub,2013-08-01 01:02:00,
2013-07-31 21:07:00,73.0,71.8,30.07,SSE,161,2.0,9.0,96,0.00,,,0.20,meteohub,2013-08-01 01:07:00,
2013-07-31 21:12:00,72.9,71.6,30.07,South,180,3.0,6.0,96,0.00,,,0.20,meteohub,2013-08-01 01:12:00,
2013-07-31 21:17:00,72.9,71.6,30.07,SE,142,3.0,6.0,96,0.00,,,0.20,meteohub,2013-08-01 01:17:00,
2013-07-31 21:22:00,72.7,71.4,30.07,SSE,156,0.0,8.0,96,0.00,,,0.20,meteohub,2013-08-01 01:22:00,
2013-07-31 21:27:00,72.7,71.4,30.07,SSE,157,1.0,8.0,96,0.00,,,0.20,meteohub,2013-08-01 01:27:00,
2013-07-31 21:32:00,72.7,71.4,30.06,South,185,0.0,6.0,96,0.00,,,0.20,meteohub,2013-08-01 01:32:00,
2013-07-31 21:42:00,72.5,71.6,30.06,South,187,3.0,6.0,97,0.00,,,0.20,meteohub,2013-08-01 01:42:00,
2013-07-31 21:47:00,72.5,71.6,30.06,South,187,0.0,7.0,97,0.00,,,0.20,meteohub,2013-08-01 01:47:00,
2013-07-31 21:57:00,72.3,71.4,30.06,South,189,0.0,7.0,97,0.00,,,0.20,meteohub,2013-08-01 01:57:00,
2013-07-31 22:02:00,72.3,71.4,30.06,South,189,0.0,7.0,97,0.00,,,0.20,meteohub,2013-08-01 02:02:00,
2013-07-31 22:07:00,72.3,71.4,30.06,South,189,0.0,3.0,97,0.00,,,0.20,meteohub,2013-08-01 02:07:00,
2013-07-31 22:17:00,72.3,71.4,30.06,South,189,0.0,3.0,97,0.00,,,0.20,meteohub,2013-08-01 02:17:00,
2013-07-31 22:22:00,72.3,71.4,30.06,South,189,0.0,4.0,97,0.00,,,0.20,meteohub,2013-08-01 02:22:00,
2013-07-31 22:27:00,72.3,71.4,30.06,South,189,0.0,4.0,97,0.00,,,0.20,meteohub,2013-08-01 02:27:00,
2013-07-31 22:32:00,72.3,71.4,30.06,South,189,0.0,4.0,97,0.00,,,0.20,meteohub,2013-08-01 02:32:00,
2013-07-31 22:37:00,72.1,70.9,30.06,South,189,0.0,3.0,96,0.00,,,0.20,meteohub,2013-08-01 02:37:00,
2013-07-31 22:42:00,72.1,71.2,30.06,South,189,0.0,3.0,97,0.00,,,0.20,meteohub,2013-08-01 02:42:00,
2013-07-31 22:52:00,72.1,71.2,30.06,South,189,0.0,4.0,97,0.00,,,0.20,meteohub,2013-08-01 02:52:00,
2013-07-31 22:57:00,72.1,71.2,30.06,South,189,0.0,1.0,97,0.00,,,0.20,meteohub,2013-08-01 02:57:00,
2013-07-31 23:02:00,72.1,71.2,30.05,South,189,0.0,0.0,97,0.00,,,0.20,meteohub,2013-08-01 03:02:00,
2013-07-31 23:07:00,72.1,71.2,30.05,South,189,0.0,0.0,97,0.00,,,0.20,meteohub,2013-08-01 03:07:00,
2013-07-31 23:12:00,72.1,71.2,30.05,South,189,0.0,0.0,97,0.00,,,0.20,meteohub,2013-08-01 03:12:00,
2013-07-31 23:17:00,72.1,71.2,30.06,South,189,0.0,0.0,97,0.00,,,0.20,meteohub,2013-08-01 03:17:00,
2013-07-31 23:22:00,72.1,71.2,30.05,South,189,0.0,3.0,97,0.00,,,0.20,meteohub,2013-08-01 03:22:00,
2013-07-31 23:27:00,72.1,71.2,30.05,South,189,0.0,3.0,97,0.00,,,0.20,meteohub,2013-08-01 03:27:00,
2013-07-31 23:37:00,72.1,71.2,30.05,South,189,0.0,0.0,97,0.00,,,0.20,meteohub,2013-08-01 03:37:00,
2013-07-31 23:47:00,72.1,71.2,30.05,South,189,0.0,2.0,97,0.00,,,0.20,meteohub,2013-08-01 03:47:00,
2013-07-31 23:57:00,72.3,71.4,30.05,South,189,0.0,2.0,97,0.00,,,0.20,meteohub,2013-08-01 03:57:00,